Time;durP1;ratioP1;P1;durP2;ratioP2;P2;SDS_P1;SDS_P2;PMS_P1;PMS_P2;Temp;Humidity;BMP_temperature;BMP_pressure;BME280_temperature;BME280_humidity;BME280_pressure;Samples;Min_cycle;Max_cycle;Signal;HPM_P1;HPM_P2
2023/06/26 00:01:05;;;;;;;6.67;5.33;;;18.30;99.90;;;;;;5091329;28;20466;-73
2023/06/26 00:03:32;;;;;;;5.80;5.20;;;18.20;99.90;;;;;;5092358;28;20560;-74
2023/06/26 00:06:00;;;;;;;5.40;4.80;;;18.20;99.90;;;;;;5091313;28;20561;-73
2023/06/26 00:08:27;;;;;;;8.53;5.97;;;18.20;99.90;;;;;;5092001;28;20482;-74
2023/06/26 00:10:54;;;;;;;7.90;5.30;;;18.10;99.90;;;;;;5091287;28;20471;-74
2023/06/26 00:13:23;;;;;;;7.37;5.47;;;18.10;99.90;;;;;;5091883;28;20467;-74
2023/06/26 00:15:51;;;;;;;6.47;5.07;;;18.10;99.90;;;;;;5090849;28;20499;-74
2023/06/26 00:18:17;;;;;;;7.13;5.23;;;18.10;99.90;;;;;;5091572;28;21018;-73
2023/06/26 00:20:44;;;;;;;5.40;4.90;;;18.00;99.90;;;;;;5091526;28;20479;-74
2023/06/26 00:23:13;;;;;;;7.47;5.70;;;18.00;99.90;;;;;;5091714;28;20464;-74
2023/06/26 00:25:39;;;;;;;6.40;5.30;;;17.90;99.90;;;;;;5092219;28;20510;-73
2023/06/26 00:28:06;;;;;;;7.23;5.70;;;17.90;99.90;;;;;;5092361;28;20485;-73
2023/06/26 00:30:34;;;;;;;7.97;6.40;;;17.80;99.90;;;;;;5091173;28;20474;-73
2023/06/26 00:33:01;;;;;;;6.73;5.10;;;17.90;99.90;;;;;;5091374;28;20460;-74
2023/06/26 00:35:28;;;;;;;6.67;5.40;;;17.80;99.90;;;;;;5091293;28;21150;-74
2023/06/26 00:37:55;;;;;;;6.03;5.30;;;17.80;99.90;;;;;;5091430;28;20490;-73
2023/06/26 00:40:21;;;;;;;5.87;5.30;;;17.70;99.90;;;;;;5090829;28;20951;-74
2023/06/26 00:42:48;;;;;;;6.00;5.40;;;17.70;99.90;;;;;;5091407;28;20460;-74
2023/06/26 00:45:15;;;;;;;6.77;5.37;;;17.70;99.90;;;;;;5090749;28;20502;-74
2023/06/26 00:47:43;;;;;;;6.50;5.70;;;17.70;99.90;;;;;;5090819;28;21009;-74
2023/06/26 00:50:10;;;;;;;5.80;5.07;;;17.60;99.90;;;;;;5090553;28;20466;-73
2023/06/26 00:52:37;;;;;;;5.83;5.27;;;17.60;99.90;;;;;;5091196;28;20481;-74
2023/06/26 00:55:05;;;;;;;6.10;5.13;;;17.60;99.90;;;;;;5090629;28;20476;-74
2023/06/26 00:57:32;;;;;;;6.33;5.07;;;17.50;99.90;;;;;;5090991;28;21000;-73
2023/06/26 01:00:00;;;;;;;5.73;5.10;;;17.50;99.90;;;;;;5090477;28;20984;-74
2023/06/26 01:02:33;;;;;;;6.10;5.13;;;17.50;99.90;;;;;;5091275;28;20939;-74
2023/06/26 01:05:03;;;;;;;6.20;5.57;;;17.50;99.90;;;;;;5090665;28;20463;-74
2023/06/26 01:07:32;;;;;;;6.47;4.93;;;17.40;99.90;;;;;;5083239;28;20488;-74
2023/06/26 01:09:59;;;;;;;6.10;5.10;;;17.40;99.90;;;;;;5089542;28;20482;-74
2023/06/26 01:12:26;;;;;;;7.00;5.77;;;17.40;99.90;;;;;;5091201;28;20454;-73
2023/06/26 01:14:52;;;;;;;6.10;4.60;;;17.40;99.90;;;;;;5090564;28;20456;-74
2023/06/26 01:17:20;;;;;;;5.90;5.13;;;17.40;99.90;;;;;;5090523;28;20477;-74
2023/06/26 01:19:48;;;;;;;7.23;4.90;;;17.30;99.90;;;;;;5090621;28;20442;-74
2023/06/26 01:22:26;;;;;;;6.20;4.50;;;17.30;99.90;;;;;;5090786;28;20927;-73
2023/06/26 01:25:02;;;;;;;7.10;5.80;;;17.30;99.90;;;;;;5090427;28;20968;-74
2023/06/26 01:27:32;;;;;;;5.50;4.60;;;17.20;99.90;;;;;;5090470;28;20479;-74
2023/06/26 01:30:03;;;;;;;7.33;5.67;;;17.20;99.90;;;;;;5090622;28;20845;-74
2023/06/26 01:32:30;;;;;;;5.10;4.60;;;17.20;99.90;;;;;;5089800;28;20458;-73
2023/06/26 01:34:58;;;;;;;6.90;5.60;;;17.20;99.90;;;;;;5090106;28;20462;-74
2023/06/26 01:37:25;;;;;;;6.70;5.17;;;17.20;99.90;;;;;;5090406;28;20504;-74
2023/06/26 01:39:52;;;;;;;6.67;5.30;;;17.20;99.90;;;;;;5090503;28;20458;-74
2023/06/26 01:42:18;;;;;;;5.30;4.80;;;17.20;99.90;;;;;;5090439;28;20464;-74
2023/06/26 01:44:48;;;;;;;5.20;4.53;;;17.20;99.90;;;;;;5089525;28;20465;-74
2023/06/26 01:47:20;;;;;;;6.40;5.10;;;17.10;99.90;;;;;;5090124;28;20486;-74
2023/06/26 01:49:50;;;;;;;5.43;4.80;;;17.10;99.90;;;;;;5090259;28;20473;-73
2023/06/26 01:52:22;;;;;;;7.77;5.60;;;17.10;99.90;;;;;;5090345;28;20486;-73
2023/06/26 01:54:59;;;;;;;7.20;5.00;;;17.10;99.90;;;;;;5089491;28;20465;-74
2023/06/26 01:57:28;;;;;;;7.30;5.50;;;17.10;99.90;;;;;;5081904;28;20484;-74
2023/06/26 01:59:58;;;;;;;6.17;4.80;;;17.10;99.90;;;;;;5091278;28;20458;-74
2023/06/26 02:02:25;;;;;;;6.63;5.20;;;17.20;99.90;;;;;;5090078;28;20472;-74
2023/06/26 02:04:52;;;;;;;4.73;4.07;;;17.20;99.90;;;;;;5089974;28;20462;-74
2023/06/26 02:07:19;;;;;;;5.97;4.73;;;17.20;99.90;;;;;;5089978;28;20485;-74
2023/06/26 02:09:46;;;;;;;5.90;4.53;;;17.30;99.90;;;;;;5090277;28;20481;-74
2023/06/26 02:12:12;;;;;;;6.80;4.90;;;17.30;99.90;;;;;;5089872;28;20457;-74
2023/06/26 02:14:39;;;;;;;5.83;4.60;;;17.40;99.90;;;;;;5089184;28;20466;-73
2023/06/26 02:17:08;;;;;;;7.10;4.93;;;17.40;99.90;;;;;;5089724;28;20482;-74
2023/06/26 02:19:35;;;;;;;5.53;4.13;;;17.50;99.90;;;;;;5089969;28;20531;-74
2023/06/26 02:22:02;;;;;;;5.03;4.43;;;17.70;99.90;;;;;;5093657;28;20461;-74
2023/06/26 02:24:29;;;;;;;6.50;4.97;;;17.80;99.90;;;;;;5094160;28;20457;-74
2023/06/26 02:26:56;;;;;;;5.40;4.87;;;17.90;99.90;;;;;;5092883;28;20508;-74
2023/06/26 02:29:23;;;;;;;5.00;4.10;;;18.00;99.90;;;;;;5093898;28;20481;-74
2023/06/26 02:31:50;;;;;;;6.70;4.87;;;18.10;99.90;;;;;;5093322;28;20464;-74
2023/06/26 02:34:18;;;;;;;6.10;5.00;;;18.20;99.90;;;;;;5093877;28;20984;-74
2023/06/26 02:36:44;;;;;;;6.33;4.90;;;18.30;99.90;;;;;;5093420;28;20481;-74
2023/06/26 02:39:11;;;;;;;5.73;4.10;;;18.30;99.90;;;;;;5093723;28;20524;-74
2023/06/26 02:41:38;;;;;;;4.40;3.80;;;18.40;99.90;;;;;;5093932;28;20516;-74
2023/06/26 02:44:05;;;;;;;6.57;4.83;;;18.40;99.90;;;;;;5093479;28;20950;-74
2023/06/26 02:46:31;;;;;;;5.60;4.80;;;18.40;99.90;;;;;;5092452;28;20463;-75
2023/06/26 02:48:58;;;;;;;6.00;4.83;;;18.40;99.90;;;;;;5093414;28;20487;-74
2023/06/26 02:51:26;;;;;;;5.83;4.13;;;18.40;99.90;;;;;;5093429;28;20464;-74
2023/06/26 02:53:53;;;;;;;7.43;4.60;;;18.40;99.90;;;;;;5093599;28;20463;-74
2023/06/26 02:56:19;;;;;;;5.70;4.73;;;18.30;99.90;;;;;;5092190;28;20480;-74
2023/06/26 02:58:46;;;;;;;4.70;4.30;;;18.30;99.90;;;;;;5093654;28;20462;-75
2023/06/26 03:01:13;;;;;;;4.53;4.13;;;18.30;99.90;;;;;;5093151;28;20461;-74
2023/06/26 03:03:41;;;;;;;5.73;4.67;;;18.30;99.90;;;;;;5093429;28;20459;-75
2023/06/26 03:06:08;;;;;;;5.83;4.50;;;18.30;99.90;;;;;;5092584;28;20460;-74
2023/06/26 03:08:39;;;;;;;6.67;4.90;;;18.20;99.90;;;;;;5093276;28;20518;-74
2023/06/26 03:11:05;;;;;;;4.50;3.90;;;18.20;99.90;;;;;;5093165;28;20455;-73
2023/06/26 03:13:33;;;;;;;5.60;4.40;;;18.20;99.90;;;;;;5093516;28;20454;-74
2023/06/26 03:15:59;;;;;;;4.83;4.40;;;18.20;99.90;;;;;;5092338;28;20462;-75
2023/06/26 03:18:26;;;;;;;8.37;5.00;;;18.20;99.90;;;;;;5084694;28;20489;-74
2023/06/26 03:20:54;;;;;;;5.57;4.77;;;18.20;99.90;;;;;;5093035;28;20467;-74
2023/06/26 03:23:21;;;;;;;5.27;4.50;;;18.30;99.90;;;;;;5093237;28;20880;-74
2023/06/26 03:25:50;;;;;;;4.53;4.13;;;18.20;99.90;;;;;;5092584;28;20462;-76
2023/06/26 03:28:17;;;;;;;6.80;5.00;;;18.30;99.90;;;;;;5092356;28;20475;-75
2023/06/26 03:30:44;;;;;;;5.33;4.00;;;18.30;99.90;;;;;;5092626;28;20958;-75
2023/06/26 03:33:11;;;;;;;5.67;4.80;;;18.40;99.90;;;;;;5098995;28;20582;-74
2023/06/26 03:35:38;;;;;;;5.90;4.93;;;18.40;99.90;;;;;;5094879;28;20785;-75
2023/06/26 03:38:05;;;;;;;8.10;4.80;;;18.50;99.90;;;;;;5093454;28;21066;-76
2023/06/26 03:40:32;;;;;;;5.33;4.17;;;18.50;99.90;;;;;;5093221;28;20462;-74
2023/06/26 03:43:01;;;;;;;5.00;4.13;;;18.60;99.90;;;;;;5092146;28;20454;-75
2023/06/26 03:45:27;;;;;;;5.63;4.23;;;18.60;99.90;;;;;;5090906;28;20455;-73
2023/06/26 03:47:54;;;;;;;4.67;4.23;;;18.70;99.90;;;;;;5091963;28;20476;-74
2023/06/26 03:50:21;;;;;;;5.40;4.50;;;18.70;99.90;;;;;;5155079;22;20499;-69
2023/06/26 03:52:49;;;;;;;5.47;4.93;;;18.80;99.90;;;;;;5051693;28;20465;-68
2023/06/26 03:55:16;;;;;;;7.03;5.63;;;18.80;99.90;;;;;;5051081;28;20465;-69
2023/06/26 03:57:43;;;;;;;4.60;4.00;;;18.80;99.90;;;;;;5051481;28;20481;-69
2023/06/26 04:00:13;;;;;;;5.50;4.60;;;18.80;99.90;;;;;;5051114;28;20993;-69
2023/06/26 04:02:40;;;;;;;4.90;4.03;;;18.90;99.90;;;;;;5051636;28;20470;-69
2023/06/26 04:05:07;;;;;;;4.77;4.30;;;18.90;99.90;;;;;;5050546;28;20465;-69
2023/06/26 04:07:34;;;;;;;5.50;4.50;;;18.90;99.90;;;;;;5051801;28;20484;-69
2023/06/26 04:10:01;;;;;;;5.87;5.20;;;18.90;99.90;;;;;;5051455;28;20537;-67
2023/06/26 04:12:28;;;;;;;4.70;4.20;;;19.00;99.90;;;;;;5051512;28;20467;-69
2023/06/26 04:14:55;;;;;;;5.30;4.30;;;19.00;99.90;;;;;;5050859;28;20611;-68
2023/06/26 04:17:23;;;;;;;5.47;4.93;;;19.00;99.90;;;;;;5050111;28;20495;-68
2023/06/26 04:19:49;;;;;;;6.00;5.37;;;19.00;99.90;;;;;;5051233;28;20989;-68
2023/06/26 04:22:16;;;;;;;4.80;4.23;;;19.00;99.90;;;;;;5050796;28;20470;-69
2023/06/26 04:24:43;;;;;;;4.97;4.40;;;19.10;99.90;;;;;;5050602;28;20502;-69
2023/06/26 04:27:10;;;;;;;5.50;5.00;;;19.10;99.90;;;;;;5050313;28;20514;-68
2023/06/26 04:29:37;;;;;;;4.43;4.00;;;19.20;99.90;;;;;;5051046;28;20510;-69
2023/06/26 04:32:05;;;;;;;4.83;4.00;;;19.20;99.90;;;;;;5048214;28;20467;-68
2023/06/26 04:34:35;;;;;;;6.07;4.97;;;19.20;99.90;;;;;;5047365;28;20873;-68
2023/06/26 04:37:04;;;;;;;7.50;4.70;;;19.20;99.90;;;;;;5047199;28;21021;-69
2023/06/26 04:39:31;;;;;;;6.50;4.50;;;19.20;99.90;;;;;;5048102;28;20469;-68
2023/06/26 04:41:58;;;;;;;5.00;4.50;;;19.20;99.90;;;;;;5047867;28;20960;-69
2023/06/26 04:44:25;;;;;;;6.20;4.23;;;19.20;99.90;;;;;;5047390;28;20495;-68
2023/06/26 04:46:52;;;;;;;5.40;4.60;;;19.30;99.90;;;;;;5048254;28;21007;-69
2023/06/26 04:49:19;;;;;;;4.60;3.90;;;19.30;99.90;;;;;;5049921;28;20514;-69
2023/06/26 04:51:48;;;;;;;5.80;4.50;;;19.40;99.90;;;;;;5051035;28;20855;-69
2023/06/26 04:54:15;;;;;;;5.40;4.50;;;19.50;99.90;;;;;;5050741;28;20494;-69
2023/06/26 04:56:43;;;;;;;5.53;4.40;;;19.50;99.90;;;;;;5050392;28;20481;-68
2023/06/26 04:59:12;;;;;;;5.17;4.57;;;19.60;99.90;;;;;;5050584;28;20515;-68
2023/06/26 05:01:39;;;;;;;5.90;4.30;;;19.60;99.90;;;;;;5050963;28;20829;-69
2023/06/26 05:04:06;;;;;;;4.90;4.40;;;19.70;99.90;;;;;;5050662;28;20980;-68
2023/06/26 05:06:33;;;;;;;5.50;4.80;;;19.80;99.90;;;;;;5050317;28;20470;-69
2023/06/26 05:09:01;;;;;;;4.93;4.53;;;19.80;99.90;;;;;;5051054;28;20460;-68
2023/06/26 05:11:28;;;;;;;5.37;4.37;;;19.80;99.90;;;;;;5051142;28;20455;-69
2023/06/26 05:13:55;;;;;;;8.70;5.33;;;19.90;99.90;;;;;;5050229;28;20469;-68
2023/06/26 05:16:21;;;;;;;6.50;5.03;;;19.90;99.90;;;;;;5049392;28;20990;-69
2023/06/26 05:18:48;;;;;;;4.77;4.10;;;19.90;99.90;;;;;;5050465;28;20462;-69
2023/06/26 05:21:17;;;;;;;4.53;4.03;;;20.00;99.90;;;;;;5050034;28;20463;-68
2023/06/26 05:23:45;;;;;;;5.63;4.70;;;20.00;99.90;;;;;;5050639;28;20478;-69
2023/06/26 05:26:14;;;;;;;4.97;4.47;;;20.10;99.90;;;;;;5050551;28;20534;-68
2023/06/26 05:28:41;;;;;;;6.20;4.90;;;20.10;99.90;;;;;;5049165;28;20484;-69
2023/06/26 05:31:08;;;;;;;5.00;4.47;;;20.20;99.90;;;;;;5051075;28;20490;-69
2023/06/26 05:33:37;;;;;;;6.00;5.17;;;20.30;99.90;;;;;;5050682;28;20469;-69
2023/06/26 05:36:05;;;;;;;4.80;4.33;;;20.40;99.90;;;;;;5049922;28;20532;-68
2023/06/26 05:38:32;;;;;;;6.30;4.70;;;20.40;99.90;;;;;;5050592;28;20475;-68
2023/06/26 05:41:00;;;;;;;6.30;4.87;;;20.40;99.90;;;;;;5050412;28;20487;-69
2023/06/26 05:43:28;;;;;;;6.13;4.77;;;20.50;99.90;;;;;;5049393;28;20474;-69
2023/06/26 05:45:55;;;;;;;5.80;4.33;;;20.60;99.90;;;;;;5049081;28;20974;-68
2023/06/26 05:48:21;;;;;;;6.67;5.00;;;20.70;99.90;;;;;;5049818;28;20494;-68
2023/06/26 05:50:48;;;;;;;6.30;5.00;;;20.70;99.90;;;;;;5049852;28;20482;-68
2023/06/26 05:53:16;;;;;;;6.30;4.60;;;20.80;99.90;;;;;;5049974;28;20468;-69
2023/06/26 05:55:43;;;;;;;6.93;4.67;;;20.90;99.90;;;;;;5048978;28;20465;-69
2023/06/26 05:58:11;;;;;;;5.67;4.20;;;21.00;99.90;;;;;;5049751;28;20990;-69
2023/06/26 06:00:40;;;;;;;5.13;4.20;;;21.00;99.90;;;;;;5050191;28;20517;-69
2023/06/26 06:03:07;;;;;;;5.70;5.10;;;21.10;99.90;;;;;;5049622;28;20959;-68
2023/06/26 06:05:34;;;;;;;4.60;3.73;;;21.20;99.90;;;;;;5049510;28;20887;-69
2023/06/26 06:08:01;;;;;;;5.17;4.23;;;21.30;99.90;;;;;;5051087;28;20491;-69
2023/06/26 06:10:28;;;;;;;4.63;4.23;;;21.30;99.90;;;;;;5044180;28;20479;-69
2023/06/26 06:12:54;;;;;;;5.97;4.80;;;21.40;99.90;;;;;;5052593;28;20469;-68
2023/06/26 06:15:21;;;;;;;4.77;4.03;;;21.50;99.90;;;;;;5050966;28;20924;-69
2023/06/26 06:17:49;;;;;;;4.87;4.37;;;21.70;99.90;;;;;;5052813;28;20479;-68
2023/06/26 06:20:16;;;;;;;5.37;4.87;;;21.80;99.90;;;;;;5049967;28;20459;-68
2023/06/26 06:22:43;;;;;;;4.50;4.10;;;22.00;99.90;;;;;;5050808;28;20470;-69
2023/06/26 06:25:10;;;;;;;5.57;4.77;;;22.20;99.90;;;;;;5049094;28;20465;-68
2023/06/26 06:27:36;;;;;;;6.43;4.70;;;22.30;99.90;;;;;;5049722;28;20491;-68
2023/06/26 06:30:04;;;;;;;5.67;5.10;;;22.40;99.90;;;;;;5049302;28;20496;-69
2023/06/26 06:32:30;;;;;;;4.67;4.23;;;22.50;99.90;;;;;;5049356;28;20467;-68
2023/06/26 06:34:59;;;;;;;4.50;4.10;;;22.60;99.90;;;;;;5049306;28;20467;-69
2023/06/26 06:37:26;;;;;;;5.73;3.90;;;22.80;99.90;;;;;;5049208;28;20489;-69
2023/06/26 06:39:53;;;;;;;4.20;3.80;;;22.90;99.90;;;;;;5049224;28;20998;-69
2023/06/26 06:42:19;;;;;;;5.00;4.17;;;23.00;99.90;;;;;;5049479;28;20489;-69
2023/06/26 06:44:46;;;;;;;3.87;3.47;;;23.00;99.90;;;;;;5048518;28;20568;-69
2023/06/26 06:47:13;;;;;;;4.30;3.90;;;23.10;99.90;;;;;;5049095;28;20487;-69
2023/06/26 06:49:39;;;;;;;4.70;4.10;;;23.20;99.90;;;;;;5049342;28;20467;-68
2023/06/26 06:52:08;;;;;;;5.20;3.90;;;23.30;99.90;;;;;;5049303;28;20473;-68
2023/06/26 06:54:53;;;;;;;4.23;3.83;;;23.30;99.90;;;;;;5049487;28;20462;-68
2023/06/26 06:57:19;;;;;;;5.63;4.33;;;23.40;99.90;;;;;;5049315;28;20489;-68
2023/06/26 06:59:47;;;;;;;4.80;3.93;;;23.40;99.90;;;;;;5049464;28;20451;-69
2023/06/26 07:02:13;;;;;;;4.00;3.60;;;23.50;99.90;;;;;;5049375;28;20575;-69
2023/06/26 07:04:40;;;;;;;4.03;3.73;;;23.60;99.90;;;;;;5049170;28;20966;-69
2023/06/26 07:07:08;;;;;;;4.30;3.90;;;23.80;99.90;;;;;;5049395;28;20490;-69
2023/06/26 07:09:35;;;;;;;4.90;4.03;;;23.80;99.90;;;;;;5052900;28;20550;-69
2023/06/26 07:12:02;;;;;;;4.43;4.03;;;24.00;99.90;;;;;;5052643;28;20978;-69
2023/06/26 07:14:29;;;;;;;4.20;3.80;;;24.00;99.90;;;;;;5044892;28;20466;-68
2023/06/26 07:16:56;;;;;;;4.33;3.93;;;24.10;99.90;;;;;;5052201;28;21278;-69
2023/06/26 07:19:22;;;;;;;5.60;4.10;;;24.20;99.90;;;;;;5052694;28;20469;-69
2023/06/26 07:21:49;;;;;;;3.90;3.60;;;24.30;99.90;;;;;;5052574;28;20460;-69
2023/06/26 07:24:17;;;;;;;5.23;3.97;;;24.40;99.70;;;;;;5052423;28;20539;-69
2023/06/26 07:26:44;;;;;;;4.33;3.80;;;24.50;99.80;;;;;;5051872;28;20476;-69
2023/06/26 07:29:11;;;;;;;5.80;4.43;;;24.60;99.70;;;;;;5052466;28;20550;-69
2023/06/26 07:31:38;;;;;;;4.80;4.30;;;24.60;99.90;;;;;;5052451;28;21124;-69
2023/06/26 07:34:05;;;;;;;4.87;4.37;;;24.70;99.40;;;;;;5044078;28;20464;-69
2023/06/26 07:36:31;;;;;;;4.63;4.17;;;24.80;99.40;;;;;;5051550;28;20837;-69
2023/06/26 07:38:58;;;;;;;4.03;3.63;;;24.90;98.90;;;;;;5051760;28;20642;-69
2023/06/26 07:41:29;;;;;;;5.07;4.20;;;25.00;99.20;;;;;;5051344;28;20965;-69
2023/06/26 07:43:56;;;;;;;4.10;3.70;;;25.00;99.10;;;;;;5051172;28;20841;-68
2023/06/26 07:46:22;;;;;;;4.60;4.10;;;25.10;99.00;;;;;;5050862;28;21011;-69
2023/06/26 07:48:49;;;;;;;4.47;3.77;;;25.20;99.50;;;;;;5051417;28;20494;-68
2023/06/26 07:51:16;;;;;;;4.50;4.10;;;25.30;99.60;;;;;;5051846;28;20486;-68
2023/06/26 07:53:43;;;;;;;4.10;3.80;;;25.40;98.50;;;;;;5051927;28;20537;-68
2023/06/26 07:56:09;;;;;;;4.23;3.70;;;25.50;99.10;;;;;;5050609;28;20812;-69
2023/06/26 07:58:37;;;;;;;4.80;4.30;;;25.60;98.80;;;;;;5053466;28;20479;-68
2023/06/26 08:01:04;;;;;;;5.20;4.17;;;25.70;99.20;;;;;;5052783;28;20471;-68
2023/06/26 08:03:31;;;;;;;4.03;3.63;;;25.80;98.60;;;;;;5043567;28;20473;-69
2023/06/26 08:05:58;;;;;;;3.97;3.57;;;25.90;98.50;;;;;;5051060;28;20463;-68
2023/06/26 08:08:24;;;;;;;4.50;3.60;;;25.90;98.20;;;;;;5050846;28;20486;-68
2023/06/26 08:10:51;;;;;;;4.10;3.70;;;26.10;97.10;;;;;;5051160;28;21012;-68
2023/06/26 08:13:18;;;;;;;4.77;3.90;;;26.10;97.80;;;;;;5051940;28;20471;-68
2023/06/26 08:15:46;;;;;;;3.30;3.00;;;26.30;97.50;;;;;;5051260;28;20475;-67
2023/06/26 08:18:12;;;;;;;4.47;4.03;;;26.30;96.50;;;;;;5051021;28;20482;-68
2023/06/26 08:20:39;;;;;;;4.00;3.60;;;26.30;96.40;;;;;;5050986;28;20464;-68
2023/06/26 08:23:06;;;;;;;4.00;3.70;;;26.40;96.20;;;;;;5051279;28;20464;-68
2023/06/26 08:25:33;;;;;;;4.10;3.73;;;26.50;96.20;;;;;;5043049;28;20460;-68
2023/06/26 08:28:00;;;;;;;3.83;3.47;;;26.60;97.70;;;;;;5051733;28;20493;-69
2023/06/26 08:30:28;;;;;;;4.77;3.60;;;26.70;96.70;;;;;;5051996;28;20483;-70
2023/06/26 08:32:56;;;;;;;3.40;3.10;;;26.80;96.90;;;;;;5050075;28;20466;-68
2023/06/26 08:35:23;;;;;;;4.20;3.77;;;26.90;97.80;;;;;;5050569;28;20459;-69
2023/06/26 08:37:49;;;;;;;4.80;4.40;;;26.90;96.10;;;;;;5050984;28;20587;-68
2023/06/26 08:40:18;;;;;;;3.60;3.30;;;27.00;98.20;;;;;;5050386;28;20459;-69
2023/06/26 08:42:45;;;;;;;4.37;3.97;;;27.10;96.50;;;;;;5050811;28;20966;-69
2023/06/26 08:45:12;;;;;;;4.03;3.67;;;27.20;97.80;;;;;;5049178;28;20459;-69
2023/06/26 08:47:42;;;;;;;4.27;3.90;;;27.30;98.00;;;;;;5050706;28;20502;-68
2023/06/26 08:50:13;;;;;;;4.10;3.77;;;27.20;96.40;;;;;;5050736;28;20474;-69
2023/06/26 08:52:46;;;;;;;4.97;4.23;;;27.20;96.10;;;;;;5051605;28;20470;-69
2023/06/26 08:55:15;;;;;;;3.40;3.10;;;27.30;96.40;;;;;;5050392;28;20870;-68
2023/06/26 08:57:42;;;;;;;4.07;3.67;;;27.40;96.60;;;;;;5050219;28;20600;-69
2023/06/26 09:00:10;;;;;;;4.63;4.20;;;27.40;96.10;;;;;;5050499;28;20459;-68
2023/06/26 09:02:37;;;;;;;4.40;4.00;;;27.40;97.20;;;;;;5050281;28;20459;-67
2023/06/26 09:05:04;;;;;;;3.83;3.53;;;27.50;97.10;;;;;;5050165;28;20456;-69
2023/06/26 09:07:32;;;;;;;4.40;4.00;;;27.60;97.70;;;;;;5050190;28;20510;-69
2023/06/26 09:09:59;;;;;;;4.30;3.90;;;27.70;96.60;;;;;;5049020;28;20470;-68
2023/06/26 09:12:28;;;;;;;5.30;4.10;;;27.80;96.20;;;;;;5049962;28;20483;-68
2023/06/26 09:14:56;;;;;;;5.40;4.00;;;27.80;95.80;;;;;;5049828;28;20517;-68
2023/06/26 09:17:26;;;;;;;5.50;4.20;;;27.70;95.70;;;;;;5049877;28;20897;-69
2023/06/26 09:19:52;;;;;;;4.10;3.80;;;27.60;94.80;;;;;;5050309;28;20491;-69
2023/06/26 09:22:19;;;;;;;4.90;4.27;;;27.50;95.60;;;;;;5049586;28;20464;-71
2023/06/26 09:24:47;;;;;;;4.37;3.97;;;27.60;95.90;;;;;;5049716;28;20464;-69
2023/06/26 09:27:14;;;;;;;4.20;3.80;;;27.70;96.00;;;;;;5049942;28;20484;-69
2023/06/26 09:29:41;;;;;;;4.03;3.63;;;27.90;96.50;;;;;;5049437;28;20456;-69
2023/06/26 09:32:09;;;;;;;4.03;3.63;;;28.10;95.20;;;;;;5050083;28;20479;-70
2023/06/26 09:34:35;;;;;;;4.33;3.93;;;28.20;95.40;;;;;;5049706;28;20843;-68
2023/06/26 09:37:04;;;;;;;4.60;4.20;;;28.30;95.60;;;;;;5049934;28;20490;-70
2023/06/26 09:39:31;;;;;;;3.90;3.60;;;28.20;95.70;;;;;;5049816;28;20467;-70
2023/06/26 09:42:01;;;;;;;4.20;3.80;;;28.20;96.00;;;;;;5049748;28;20828;-70
2023/06/26 09:44:31;;;;;;;4.20;3.80;;;28.30;96.10;;;;;;5049874;28;20470;-70
2023/06/26 09:46:58;;;;;;;4.80;3.90;;;28.40;96.10;;;;;;5048159;28;20491;-70
2023/06/26 09:49:25;;;;;;;4.30;3.90;;;28.60;94.50;;;;;;5049821;28;20982;-70
2023/06/26 09:51:53;;;;;;;4.40;4.00;;;28.70;95.10;;;;;;5049429;28;20491;-71
2023/06/26 09:54:22;;;;;;;4.70;4.10;;;28.90;96.10;;;;;;5049341;28;20464;-70
2023/06/26 09:56:49;;;;;;;4.23;3.83;;;29.00;94.90;;;;;;5049380;28;20476;-69
2023/06/26 09:59:17;;;;;;;4.50;4.00;;;28.90;94.60;;;;;;5049371;28;20825;-69
2023/06/26 10:01:47;;;;;;;4.63;3.83;;;28.90;94.60;;;;;;5049216;28;20455;-70
2023/06/26 10:04:14;;;;;;;4.93;4.43;;;28.80;94.70;;;;;;5049531;28;20467;-70
2023/06/26 10:06:46;;;;;;;4.87;4.20;;;28.80;94.90;;;;;;5049175;28;20482;-68
2023/06/26 10:09:15;;;;;;;4.67;4.23;;;28.80;94.10;;;;;;5049133;28;20470;-70
2023/06/26 10:11:47;;;;;;;4.67;4.17;;;28.70;94.50;;;;;;5047535;28;20537;-70
2023/06/26 10:14:15;;;;;;;4.17;3.87;;;28.60;94.00;;;;;;5049692;28;20459;-70
2023/06/26 10:16:45;;;;;;;6.03;4.80;;;28.60;93.80;;;;;;5047727;28;20488;-70
2023/06/26 10:19:14;;;;;;;4.37;3.97;;;28.60;96.70;;;;;;5049739;28;20491;-70
2023/06/26 10:21:42;;;;;;;5.20;4.50;;;28.70;95.60;;;;;;5041346;28;20840;-70
2023/06/26 10:24:11;;;;;;;4.57;4.17;;;28.60;95.10;;;;;;5049251;28;20463;-70
2023/06/26 10:26:41;;;;;;;4.20;3.80;;;28.50;94.70;;;;;;5049316;28;20479;-70
2023/06/26 10:29:08;;;;;;;4.20;3.90;;;28.40;94.20;;;;;;5050325;28;20475;-69
2023/06/26 10:31:36;;;;;;;4.60;4.20;;;28.30;94.60;;;;;;5049395;28;20472;-70
2023/06/26 10:34:04;;;;;;;4.10;3.80;;;28.20;95.40;;;;;;5048852;28;20460;-70
2023/06/26 10:36:32;;;;;;;5.77;4.53;;;28.00;94.60;;;;;;5049196;28;20463;-69
2023/06/26 10:39:04;;;;;;;5.03;4.63;;;27.80;95.50;;;;;;5048793;28;20502;-70
2023/06/26 10:41:38;;;;;;;4.47;4.00;;;27.50;96.00;;;;;;5050475;28;20873;-70
2023/06/26 10:44:10;;;;;;;5.00;4.60;;;27.40;97.00;;;;;;5053239;28;20969;-69
2023/06/26 10:46:53;;;;;;;5.00;4.50;;;27.30;96.90;;;;;;5051483;28;20864;-69
2023/06/26 10:49:25;;;;;;;4.87;4.37;;;27.40;97.70;;;;;;5052949;28;20470;-70
2023/06/26 10:51:53;;;;;;;4.90;4.50;;;27.50;98.00;;;;;;5052680;28;20511;-70
2023/06/26 10:54:21;;;;;;;5.30;4.80;;;27.70;98.90;;;;;;5052531;28;20513;-70
2023/06/26 10:56:48;;;;;;;5.37;4.80;;;28.00;97.30;;;;;;5052296;28;20486;-69
2023/06/26 10:59:17;;;;;;;4.87;4.43;;;28.20;97.40;;;;;;5053012;28;20455;-69
2023/06/26 11:01:45;;;;;;;5.80;5.23;;;28.30;97.60;;;;;;5052463;28;20464;-69
2023/06/26 11:04:14;;;;;;;4.77;4.33;;;28.40;97.80;;;;;;5051892;28;20521;-69
2023/06/26 11:06:46;;;;;;;5.50;4.77;;;28.40;96.80;;;;;;5052213;28;20489;-69
2023/06/26 11:09:16;;;;;;;6.00;5.17;;;28.40;97.60;;;;;;5053204;28;20494;-69
2023/06/26 11:12:01;;;;;;;4.80;4.40;;;28.60;98.10;;;;;;5052242;28;21001;-69
2023/06/26 11:14:28;;;;;;;6.23;5.63;;;28.80;97.70;;;;;;5043921;28;20557;-69
2023/06/26 11:16:57;;;;;;;5.10;4.70;;;28.90;96.10;;;;;;5051599;28;20479;-69
2023/06/26 11:19:27;;;;;;;4.87;4.37;;;29.00;96.60;;;;;;5052439;28;20495;-70
2023/06/26 11:22:00;;;;;;;5.00;4.60;;;29.00;96.30;;;;;;5053097;28;20484;-70
2023/06/26 11:24:27;;;;;;;6.90;4.90;;;29.00;95.50;;;;;;5052640;28;20521;-70
2023/06/26 11:26:54;;;;;;;5.07;4.60;;;29.10;96.00;;;;;;5052082;28;20479;-70
2023/06/26 11:29:21;;;;;;;6.57;5.00;;;29.30;95.20;;;;;;5052390;28;20464;-70
2023/06/26 11:31:48;;;;;;;5.13;4.73;;;29.40;94.80;;;;;;5052318;28;20475;-69
2023/06/26 11:34:15;;;;;;;5.10;4.70;;;29.30;95.20;;;;;;5050020;28;20475;-70
2023/06/26 11:36:46;;;;;;;5.13;4.63;;;29.40;96.60;;;;;;5051125;28;20480;-68
2023/06/26 11:39:14;;;;;;;4.93;4.43;;;29.40;96.30;;;;;;5052256;28;20467;-69
2023/06/26 11:41:41;;;;;;;5.50;4.93;;;29.40;95.80;;;;;;5052008;28;20475;-69
2023/06/26 11:44:09;;;;;;;6.23;5.03;;;29.50;96.10;;;;;;5050881;28;20475;-68
2023/06/26 11:46:36;;;;;;;5.20;4.70;;;29.50;97.40;;;;;;5051797;28;20990;-67
2023/06/26 11:49:05;;;;;;;5.40;5.00;;;29.60;96.70;;;;;;5051762;28;20829;-69
2023/06/26 11:51:31;;;;;;;5.00;4.47;;;29.80;96.50;;;;;;5051554;28;20507;-69
2023/06/26 11:54:01;;;;;;;5.00;4.50;;;29.80;96.40;;;;;;5051169;28;20466;-70
2023/06/26 11:56:29;;;;;;;5.07;4.47;;;30.00;95.80;;;;;;5051683;28;20464;-69
2023/06/26 11:59:00;;;;;;;5.17;4.60;;;29.90;96.10;;;;;;5051107;28;20483;-70
2023/06/26 12:01:28;;;;;;;5.57;5.00;;;30.00;96.20;;;;;;5050912;28;20836;-69
2023/06/26 12:04:00;;;;;;;6.73;4.90;;;30.00;97.40;;;;;;5051728;28;20488;-69
2023/06/26 12:06:27;;;;;;;4.93;4.43;;;30.00;96.10;;;;;;5051563;28;21044;-70
2023/06/26 12:08:54;;;;;;;4.90;4.40;;;30.10;96.70;;;;;;5051852;28;20463;-70
2023/06/26 12:11:24;;;;;;;6.50;5.60;;;29.90;95.10;;;;;;5051327;28;20566;-70
2023/06/26 12:13:52;;;;;;;5.67;5.17;;;29.60;95.80;;;;;;5051702;28;20463;-70
2023/06/26 12:16:20;;;;;;;5.13;4.63;;;29.40;96.90;;;;;;5051307;28;20464;-69
2023/06/26 12:18:47;;;;;;;5.33;4.83;;;29.40;96.50;;;;;;5051669;28;20460;-70
2023/06/26 12:21:29;;;;;;;5.03;4.63;;;29.50;97.90;;;;;;5051333;28;20463;-68
2023/06/26 12:24:00;;;;;;;6.87;5.07;;;29.60;97.60;;;;;;5044450;28;20985;-70
2023/06/26 12:26:27;;;;;;;5.10;4.60;;;29.50;97.20;;;;;;5051000;28;21009;-69
2023/06/26 12:29:03;;;;;;;4.57;4.17;;;29.20;97.80;;;;;;5051240;28;20463;-68
2023/06/26 12:31:29;;;;;;;5.20;4.70;;;29.10;98.50;;;;;;5051477;28;20880;-69
2023/06/26 12:33:56;;;;;;;5.10;4.17;;;29.20;99.00;;;;;;5051517;28;20464;-69
2023/06/26 12:36:23;;;;;;;6.00;5.00;;;29.20;98.60;;;;;;5050403;28;20467;-69
2023/06/26 12:38:50;;;;;;;4.80;4.40;;;29.30;98.80;;;;;;5051432;28;20805;-70
2023/06/26 12:41:17;;;;;;;5.20;4.80;;;29.40;99.90;;;;;;5051297;28;20460;-69
2023/06/26 12:43:44;;;;;;;5.40;4.90;;;29.50;99.30;;;;;;5051091;28;20459;-69
2023/06/26 12:46:12;;;;;;;5.17;4.70;;;29.60;98.10;;;;;;5050582;28;20467;-69
2023/06/26 12:48:43;;;;;;;4.77;4.13;;;29.60;99.10;;;;;;5050786;28;20480;-69
2023/06/26 12:51:11;;;;;;;5.23;4.73;;;29.70;97.70;;;;;;5050768;28;20907;-68